Time;durP1;ratioP1;P1;durP2;ratioP2;P2;SDS_P1;SDS_P2;PMS_P1;PMS_P2;Temp;Humidity;BMP_temperature;BMP_pressure;BME280_temperature;BME280_humidity;BME280_pressure;Samples;Min_cycle;Max_cycle;Signal;HPM_P1;HPM_P2
2023/12/03 00:00:34;;;;;;;73.20;22.83;;;;;;;-0.16;100.00;101635.72;10448683;28;20550;-80
2023/12/03 00:05:35;;;;;;;75.90;25.77;;;;;;;-0.13;100.00;101639.94;10446493;28;20049;-79
2023/12/03 00:10:35;;;;;;;74.70;24.70;;;;;;;-0.16;100.00;101638.41;10453024;28;20044;-80
2023/12/03 00:15:35;;;;;;;67.33;23.80;;;;;;;-0.16;100.00;101638.41;10458762;28;20025;-78
2023/12/03 00:20:36;;;;;;;70.93;26.17;;;;;;;-0.39;100.00;101615.66;10423455;28;20044;-80
2023/12/03 00:25:36;;;;;;;68.73;24.03;;;;;;;-0.19;100.00;101646.84;10462672;28;20106;-79
2023/12/03 00:30:37;;;;;;;64.67;23.90;;;;;;;-0.18;100.00;101645.84;10439742;28;20036;-80
2023/12/03 00:35:37;;;;;;;62.93;23.23;;;;;;;-0.36;100.00;101627.03;10457881;28;20037;-79
2023/12/03 00:40:39;;;;;;;62.20;21.83;;;;;;;-0.33;100.00;101642.94;10440856;28;20049;-75
2023/12/03 00:45:39;;;;;;;57.07;21.50;;;;;;;-0.38;100.00;101653.38;10423534;28;20036;-75
2023/12/03 00:50:40;;;;;;;52.83;21.43;;;;;;;-0.57;100.00;101629.31;10457559;28;20060;-76
2023/12/03 00:55:40;;;;;;;52.20;22.67;;;;;;;-0.43;100.00;101648.47;10457305;28;20405;-76
2023/12/03 01:00:40;;;;;;;58.47;23.90;;;;;;;-0.38;100.00;101649.84;10456472;28;20402;-78
2023/12/03 01:05:41;;;;;;;56.20;23.97;;;;;;;-0.47;100.00;101630.88;10439104;28;20461;-75
2023/12/03 01:10:41;;;;;;;50.70;21.33;;;;;;;-0.49;100.00;101643.72;10440469;28;20052;-74
2023/12/03 01:15:43;;;;;;;56.72;20.77;;;;;;;-0.55;100.00;101648.94;10423326;28;20044;-74
2023/12/03 01:20:43;;;;;;;48.40;20.60;;;;;;;-0.69;100.00;101653.94;10438433;28;20037;-76
2023/12/03 01:25:44;;;;;;;51.10;22.37;;;;;;;-0.96;100.00;101651.41;10422316;28;20040;-75
2023/12/03 01:30:44;;;;;;;45.97;20.20;;;;;;;-0.97;100.00;101664.09;10420515;28;20044;-79
2023/12/03 01:35:45;;;;;;;48.80;20.17;;;;;;;-1.10;100.00;101672.59;10425969;28;20033;-76
2023/12/03 01:40:52;;;;;;;55.67;20.50;;;;;;;-1.21;100.00;101664.75;10431434;28;20481;-77
2023/12/03 01:45:53;;;;;;;45.30;19.23;;;;;;;-1.33;100.00;101687.63;10429897;28;20033;-81
2023/12/03 01:50:53;;;;;;;43.80;19.47;;;;;;;-1.45;100.00;101674.38;10412919;28;20086;-81
2023/12/03 01:55:54;;;;;;;54.07;21.10;;;;;;;-1.55;100.00;101675.44;10413345;28;20083;-81
2023/12/03 02:00:54;;;;;;;42.63;19.47;;;;;;;-1.42;100.00;101714.56;10442296;28;20032;-83
2023/12/03 02:06:04;;;;;;;50.33;21.00;;;;;;;-1.51;100.00;101701.13;10400630;28;20041;-84
2023/12/03 02:11:05;;;;;;;54.13;20.00;;;;;;;-1.54;100.00;101723.91;10418014;28;20041;-86
2023/12/03 02:16:06;;;;;;;59.77;22.43;;;;;;;-1.72;100.00;101725.75;10411949;28;20044;-87
2023/12/03 02:21:07;;;;;;;47.70;19.33;;;;;;;-1.90;100.00;101723.88;10428008;28;20400;-85
2023/12/03 02:26:08;;;;;;;50.77;20.00;;;;;;;-1.93;100.00;101734.97;10410437;28;20073;-86
2023/12/03 02:31:08;;;;;;;50.73;21.50;;;;;;;-2.03;100.00;101734.16;10404560;28;20041;-88
2023/12/03 02:36:09;;;;;;;55.17;20.83;;;;;;;-2.12;100.00;101730.53;10408979;28;20520;-89
2023/12/03 02:41:09;;;;;;;56.00;20.60;;;;;;;-2.18;100.00;101738.38;10410355;28;20040;-89
2023/12/03 02:46:10;;;;;;;56.37;20.50;;;;;;;-2.26;100.00;101750.75;10408154;28;20044;-88
2023/12/03 02:51:10;;;;;;;52.63;21.60;;;;;;;-2.27;100.00;101756.31;10425266;28;20095;-84
2023/12/03 02:56:12;;;;;;;52.73;23.07;;;;;;;-2.29;100.00;101761.84;10393279;28;20045;-86
2023/12/03 03:01:12;;;;;;;57.43;24.33;;;;;;;-2.42;100.00;101765.88;10406757;28;20063;-86
2023/12/03 03:06:13;;;;;;;56.47;23.30;;;;;;;-2.42;100.00;101773.94;10408907;28;20045;-85
2023/12/03 03:11:13;;;;;;;60.87;22.60;;;;;;;-2.53;100.00;101770.44;10425446;28;20118;-85
2023/12/03 03:16:14;;;;;;;60.37;25.33;;;;;;;-2.51;100.00;101779.22;10388173;28;20037;-85
2023/12/03 03:21:14;;;;;;;60.00;24.10;;;;;;;-2.51;100.00;101767.59;10406520;28;20041;-84
2023/12/03 03:26:15;;;;;;;56.67;24.27;;;;;;;-2.73;100.00;101752.63;10406452;28;20041;-85
2023/12/03 03:31:15;;;;;;;58.30;23.53;;;;;;;-2.68;100.00;101780.84;10348131;28;1168768;-84
2023/12/03 03:36:16;;;;;;;57.10;24.10;;;;;;;-2.66;100.00;101759.97;10406118;28;20241;-84
2023/12/03 03:41:17;;;;;;;60.50;25.00;;;;;;;-2.49;100.00;101771.84;10407937;28;20052;-84
2023/12/03 03:46:17;;;;;;;65.93;25.03;;;;;;;-2.44;100.00;101768.69;10385944;28;20118;-85
2023/12/03 03:51:18;;;;;;;71.20;25.20;;;;;;;-2.40;100.00;101772.81;10440656;28;20033;-84
2023/12/03 03:56:18;;;;;;;61.53;25.00;;;;;;;-2.27;100.00;101776.03;10385012;28;20037;-85
2023/12/03 04:01:19;;;;;;;65.90;24.37;;;;;;;-2.08;100.00;101787.75;10422794;28;20045;-85
2023/12/03 04:06:19;;;;;;;72.03;27.17;;;;;;;-1.88;100.00;101800.16;10409030;28;20044;-85
2023/12/03 04:11:20;;;;;;;100.80;27.73;;;;;;;-1.67;100.00;101809.84;10441012;28;20037;-86
2023/12/03 04:16:22;;;;;;;200.27;31.03;;;;;;;-1.55;100.00;101802.34;10399483;28;20036;-86
2023/12/03 04:21:22;;;;;;;271.67;41.10;;;;;;;-1.48;100.00;101788.09;10405615;28;20171;-86
2023/12/03 04:26:23;;;;;;;366.43;59.23;;;;;;;-1.29;100.00;101802.47;10406511;28;20354;-86
2023/12/03 04:31:27;;;;;;;440.77;77.33;;;;;;;-1.18;100.00;101806.78;10435678;28;20040;-87
2023/12/03 04:36:27;;;;;;;502.17;94.07;;;;;;;-1.09;100.00;101808.59;10407439;28;20049;-86
2023/12/03 04:41:35;;;;;;;596.87;112.03;;;;;;;-1.07;100.00;101785.81;10404859;28;20036;-84
2023/12/03 04:46:39;;;;;;;899.47;151.17;;;;;;;-0.97;100.00;101796.53;10390232;28;20056;-87
2023/12/03 04:51:39;;;;;;;822.17;152.30;;;;;;;-0.97;100.00;101798.38;10389660;28;20044;-87
2023/12/03 04:56:40;;;;;;;612.87;132.40;;;;;;;-0.82;100.00;101805.78;10404033;28;20043;-85
2023/12/03 05:01:40;;;;;;;906.33;147.83;;;;;;;-0.88;100.00;101794.75;10384597;28;20033;-83
2023/12/03 05:06:41;;;;;;;805.03;146.73;;;;;;;-0.71;100.00;101804.66;10406053;28;20033;-87
2023/12/03 05:11:42;;;;;;;699.70;131.43;;;;;;;-0.65;100.00;101816.72;10400244;28;20075;-87
2023/12/03 05:16:42;;;;;;;478.93;98.57;;;;;;;-0.62;100.00;101803.75;10406601;28;20040;-87
2023/12/03 05:21:43;;;;;;;518.60;102.63;;;;;;;-0.62;100.00;101806.44;10404592;28;20136;-88
2023/12/03 05:26:43;;;;;;;603.67;107.80;;;;;;;-0.50;100.00;101814.28;10404850;28;20041;-81
2023/12/03 05:31:45;;;;;;;521.47;98.63;;;;;;;-0.54;100.00;101812.91;10394536;28;20061;-87
2023/12/03 05:36:45;;;;;;;419.53;79.57;;;;;;;-0.94;100.00;101758.38;10388457;28;20055;-87
2023/12/03 05:41:46;;;;;;;329.20;55.17;;;;;;;-0.52;100.00;101822.56;10405124;28;20075;-88
2023/12/03 05:46:46;;;;;;;333.57;52.43;;;;;;;-0.45;100.00;101834.47;10404738;28;20394;-88
2023/12/03 05:51:46;;;;;;;199.67;36.47;;;;;;;-0.49;100.00;101832.22;10388035;28;20037;-88
2023/12/03 05:56:47;;;;;;;184.00;32.13;;;;;;;-0.40;100.00;101831.25;10404713;28;20070;-88
2023/12/03 06:01:47;;;;;;;230.07;32.13;;;;;;;-0.42;100.00;101833.28;10408691;28;20041;-88
2023/12/03 06:06:48;;;;;;;152.77;28.37;;;;;;;-0.42;100.00;101836.00;10420619;28;20083;-85
2023/12/03 06:11:48;;;;;;;158.90;30.40;;;;;;;-0.31;100.00;101846.56;10405609;28;20045;-87
2023/12/03 06:16:49;;;;;;;193.77;31.47;;;;;;;-0.26;100.00;101843.38;10419584;28;20036;-86
2023/12/03 06:21:49;;;;;;;232.87;34.90;;;;;;;-0.32;100.00;101831.31;10405976;28;20134;-87
2023/12/03 06:26:50;;;;;;;183.77;33.70;;;;;;;-0.30;100.00;101831.16;10411900;28;20503;-85
2023/12/03 06:31:51;;;;;;;163.47;31.63;;;;;;;-0.35;100.00;101834.38;10412026;28;20041;-84
2023/12/03 06:36:51;;;;;;;167.97;32.00;;;;;;;-0.19;100.00;101849.00;10395738;28;20043;-84
2023/12/03 06:41:52;;;;;;;156.97;31.03;;;;;;;-0.19;100.00;101849.84;10394743;28;20041;-83
2023/12/03 06:46:52;;;;;;;156.63;29.97;;;;;;;-0.12;100.00;101855.47;10411538;28;20037;-83
2023/12/03 06:51:53;;;;;;;159.60;33.03;;;;;;;-0.09;100.00;101868.69;10427949;28;20041;-82
2023/12/03 06:56:53;;;;;;;137.33;30.70;;;;;;;-0.09;100.00;101865.97;10412081;28;20052;-80
2023/12/03 07:01:54;;;;;;;163.80;35.50;;;;;;;-0.10;100.00;101864.28;10435684;28;20037;-80
2023/12/03 07:06:54;;;;;;;160.63;33.90;;;;;;;-0.06;100.00;101887.31;10461456;28;20037;-80
2023/12/03 07:11:55;;;;;;;182.77;36.97;;;;;;;-0.07;100.00;101874.78;10443624;28;20033;-80
2023/12/03 07:16:55;;;;;;;175.27;37.60;;;;;;;-0.16;100.00;101868.47;10424220;28;20041;-80
2023/12/03 07:21:56;;;;;;;159.40;36.00;;;;;;;-0.06;100.00;101884.63;10441787;28;20029;-79
2023/12/03 07:26:56;;;;;;;193.50;35.50;;;;;;;-0.03;100.00;101881.56;10457794;28;20037;-79
2023/12/03 07:31:57;;;;;;;182.20;38.23;;;;;;;-0.07;100.00;101893.72;10450606;28;20041;-79
2023/12/03 07:36:57;;;;;;;167.85;37.90;;;;;;;-0.07;100.00;101896.44;10442200;28;20028;-79
2023/12/03 07:41:58;;;;;;;124.33;36.60;;;;;;;-0.12;100.00;101890.66;10459396;28;20037;-77
2023/12/03 07:46:58;;;;;;;146.17;35.03;;;;;;;0.01;100.00;101909.19;10424162;28;22240;-78
2023/12/03 07:51:59;;;;;;;148.27;34.77;;;;;;;0.03;100.00;101897.19;10439926;28;20106;-79
2023/12/03 07:56:59;;;;;;;145.83;34.40;;;;;;;0.07;100.00;101906.69;10440811;28;20048;-79
2023/12/03 08:02:00;;;;;;;173.50;37.27;;;;;;;0.08;100.00;101911.06;10446763;28;20412;-78
2023/12/03 08:07:00;;;;;;;148.13;32.23;;;;;;;0.12;100.00;101911.63;10439813;28;20409;-78
2023/12/03 08:12:01;;;;;;;205.57;33.50;;;;;;;0.14;100.00;101915.00;10424795;28;20040;-79
2023/12/03 08:17:01;;;;;;;177.80;35.73;;;;;;;0.15;100.00;101917.56;10439664;28;20041;-80
2023/12/03 08:22:02;;;;;;;219.63;37.60;;;;;;;0.12;100.00;101919.75;10422901;28;20067;-79
2023/12/03 08:27:02;;;;;;;181.50;36.27;;;;;;;0.22;100.00;101934.00;10423825;28;20033;-78
2023/12/03 08:32:03;;;;;;;151.37;33.93;;;;;;;0.27;100.00;101934.41;10439869;28;20373;-80
2023/12/03 08:37:04;;;;;;;183.37;34.07;;;;;;;-0.45;100.00;101801.16;10406394;28;20574;-79
2023/12/03 08:42:04;;;;;;;168.77;36.57;;;;;;;0.42;100.00;101950.06;10452848;28;20119;-79
2023/12/03 08:47:05;;;;;;;160.90;36.70;;;;;;;0.40;100.00;101948.34;10430087;28;20048;-81
2023/12/03 08:52:07;;;;;;;142.33;32.20;;;;;;;0.44;100.00;101932.63;10436929;28;20045;-81
2023/12/03 08:57:09;;;;;;;169.50;35.50;;;;;;;0.41;100.00;101924.81;10438783;28;20421;-81
2023/12/03 09:02:09;;;;;;;130.83;33.87;;;;;;;0.51;100.00;101939.09;10414563;28;20075;-82
2023/12/03 09:07:09;;;;;;;128.25;33.25;;;;;;;0.64;100.00;101959.47;10454736;28;20106;-83
2023/12/03 09:12:10;;;;;;;127.57;31.87;;;;;;;0.10;100.00;101881.97;10438272;28;20429;-82
2023/12/03 09:17:11;;;;;;;108.63;30.27;;;;;;;0.65;100.00;101964.72;10428392;28;20077;-83
2023/12/03 09:22:11;;;;;;;115.60;29.27;;;;;;;0.68;100.00;101963.56;10442726;28;20033;-79
2023/12/03 09:27:11;;;;;;;104.30;26.60;;;;;;;0.66;100.00;101989.97;10419673;28;20041;-81
2023/12/03 09:32:12;;;;;;;96.93;26.57;;;;;;;0.57;100.00;101981.78;10412234;28;20075;-83
2023/12/03 09:37:13;;;;;;;85.03;26.37;;;;;;;0.50;100.00;101964.50;10420455;28;20073;-85
2023/12/03 09:42:14;;;;;;;78.80;24.10;;;;;;;0.72;100.00;101978.47;10402273;28;20052;-84
2023/12/03 09:47:14;;;;;;;87.30;24.57;;;;;;;0.83;100.00;101974.63;10388000;28;20041;-85
2023/12/03 09:52:16;;;;;;;90.97;22.50;;;;;;;0.83;100.00;101963.78;10420083;28;20350;-83
2023/12/03 09:57:17;;;;;;;73.67;22.60;;;;;;;0.85;100.00;101973.47;10419100;28;20037;-83
2023/12/03 10:02:17;;;;;;;87.53;25.35;;;;;;;0.71;100.00;101949.69;10416612;28;20036;-85
2023/12/03 10:07:18;;;;;;;93.60;26.40;;;;;;;0.90;100.00;101965.69;10411315;28;20044;-84
2023/12/03 10:12:19;;;;;;;92.13;24.83;;;;;;;1.03;100.00;101986.06;10411271;28;20529;-84
2023/12/03 10:17:20;;;;;;;83.70;25.07;;;;;;;1.11;100.00;101972.53;10411198;28;20057;-83
2023/12/03 10:22:31;;;;;;;91.53;26.23;;;;;;;1.17;100.00;101967.28;10414855;28;20033;-83
2023/12/03 10:27:32;;;;;;;89.63;26.37;;;;;;;1.15;100.00;101946.78;10428682;28;20052;-81
2023/12/03 10:32:32;;;;;;;99.77;27.83;;;;;;;1.30;100.00;101939.69;10410163;28;20033;-81
2023/12/03 10:37:33;;;;;;;103.37;29.17;;;;;;;1.48;100.00;101952.25;10429207;28;20053;-82
2023/12/03 10:42:39;;;;;;;110.57;28.92;;;;;;;1.50;100.00;101945.66;10447798;28;20033;-81
2023/12/03 10:47:40;;;;;;;99.50;26.90;;;;;;;1.69;100.00;101955.31;10438654;28;20037;-80
2023/12/03 10:52:41;;;;;;;109.05;30.85;;;;;;;1.90;100.00;101934.94;10425612;28;20036;-81
2023/12/03 10:57:53;;;;;;;93.17;27.97;;;;;;;2.01;100.00;101923.75;10455818;28;20045;-81
2023/12/03 11:03:05;;;;;;;89.33;29.33;;;;;;;2.02;100.00;101911.84;10434237;28;20369;-81
2023/12/03 11:08:05;;;;;;;93.82;28.88;;;;;;;2.15;100.00;101912.19;10471548;28;20051;-81
2023/12/03 11:13:06;;;;;;;74.63;25.13;;;;;;;2.36;100.00;101902.63;10441533;28;20040;-80
2023/12/03 11:18:06;;;;;;;68.43;25.60;;;;;;;2.65;100.00;101912.00;10450890;28;20045;-80
2023/12/03 11:23:41;;;;;;;74.28;27.33;;;;;;;2.90;100.00;101927.19;10424295;28;20040;-80
2023/12/03 11:28:52;;;;;;;59.75;25.05;;;;;;;2.91;100.00;101937.03;10448171;28;20061;-81
2023/12/03 11:33:57;;;;;;;58.55;26.70;;;;;;;2.70;100.00;101915.06;10419105;28;20517;-81
2023/12/03 11:38:58;;;;;;;58.27;23.13;;;;;;;2.70;100.00;101921.34;10421965;28;20041;-80
2023/12/03 11:44:18;;;;;;;60.08;23.98;;;;;;;2.85;100.00;101929.59;10424626;28;20039;-81
2023/12/03 11:49:18;;;;;;;61.28;25.40;;;;;;;2.94;100.00;101927.69;10422662;28;20124;-80
2023/12/03 11:54:28;;;;;;;51.28;22.95;;;;;;;3.03;100.00;101938.34;10419692;28;20484;-81
2023/12/03 11:59:28;;;;;;;40.85;21.73;;;;;;;3.13;100.00;101937.28;10443896;28;20063;-81
2023/12/03 12:04:29;;;;;;;50.00;23.75;;;;;;;3.01;100.00;101923.22;10444555;28;20047;-81
2023/12/03 12:09:29;;;;;;;44.60;22.67;;;;;;;2.99;100.00;101922.56;10427264;28;20254;-82
2023/12/03 12:14:30;;;;;;;47.97;23.77;;;;;;;3.06;100.00;101933.56;10433223;28;20102;-81
2023/12/03 12:19:30;;;;;;;41.25;22.50;;;;;;;2.92;100.00;101911.53;10423704;28;20437;-84
2023/12/03 12:24:31;;;;;;;40.15;21.15;;;;;;;2.93;100.00;101934.16;10424907;28;20052;-77
2023/12/03 12:29:32;;;;;;;41.78;21.48;;;;;;;2.74;100.00;101916.41;10422685;28;20090;-81
2023/12/03 12:34:33;;;;;;;43.83;20.88;;;;;;;2.58;100.00;101923.59;10446881;28;20040;-81
2023/12/03 12:39:33;;;;;;;39.35;21.75;;;;;;;2.32;100.00;101928.44;10421797;28;20105;-80
2023/12/03 12:44:41;;;;;;;41.63;21.88;;;;;;;2.11;100.00;101918.97;10442321;28;20033;-80
2023/12/03 12:49:51;;;;;;;42.78;23.25;;;;;;;2.06;100.00;101939.53;10397261;28;20025;-81
2023/12/03 12:54:51;;;;;;;46.30;23.03;;;;;;;1.96;100.00;101912.53;10406502;28;20087;-81
2023/12/03 12:59:52;;;;;;;40.47;21.55;;;;;;;1.93;100.00;101923.75;10400411;28;20060;-82
2023/12/03 13:04:53;;;;;;;41.70;19.88;;;;;;;2.00;100.00;101938.34;10423088;28;20052;-82
2023/12/03 13:09:53;;;;;;;37.87;18.37;;;;;;;2.05;100.00;101935.97;10418403;28;20044;-81
2023/12/03 13:14:54;;;;;;;36.47;18.77;;;;;;;2.07;100.00;101922.19;10457689;28;20041;-82
2023/12/03 13:19:54;;;;;;;32.45;18.30;;;;;;;2.42;100.00;101904.63;10425693;28;20040;-82
2023/12/03 13:24:55;;;;;;;32.83;17.65;;;;;;;2.68;100.00;101903.50;10420140;28;20033;-81
2023/12/03 13:29:55;;;;;;;33.30;16.35;;;;;;;2.62;100.00;101889.59;10436990;28;20047;-81
2023/12/03 13:34:56;;;;;;;37.03;18.10;;;;;;;2.64;100.00;101908.44;10449135;28;20060;-80
2023/12/03 13:39:56;;;;;;;33.80;18.45;;;;;;;2.01;100.00;101853.13;10445951;28;20044;-82
2023/12/03 13:44:57;;;;;;;41.33;20.48;;;;;;;1.97;100.00;101906.94;10428027;28;20072;-82
2023/12/03 13:50:01;;;;;;;40.58;20.95;;;;;;;1.81;100.00;101912.41;10405887;28;20300;-82
2023/12/03 13:55:02;;;;;;;45.60;23.20;;;;;;;1.66;100.00;101901.38;10445167;28;20140;-82
2023/12/03 14:00:03;;;;;;;44.47;20.93;;;;;;;1.37;100.00;101900.00;10429054;28;20491;-81
2023/12/03 14:05:03;;;;;;;39.37;20.43;;;;;;;1.13;100.00;101894.56;10433855;28;20033;-82
2023/12/03 14:10:06;;;;;;;49.45;23.52;;;;;;;0.94;100.00;101896.56;10431121;28;20033;-81
2023/12/03 14:15:07;;;;;;;48.13;23.80;;;;;;;0.79;100.00;101909.06;10443732;28;20063;-81
2023/12/03 14:20:08;;;;;;;50.87;24.07;;;;;;;0.49;100.00;101892.34;10447092;28;20120;-83
2023/12/03 14:25:09;;;;;;;55.77;24.83;;;;;;;0.45;100.00;101914.50;10434245;28;20096;-82
2023/12/03 14:30:10;;;;;;;49.60;23.37;;;;;;;0.32;100.00;101912.25;10466560;28;20069;-82
2023/12/03 14:35:10;;;;;;;55.27;23.60;;;;;;;0.17;100.00;101912.84;10438663;28;20044;-82
2023/12/03 14:40:15;;;;;;;53.43;23.40;;;;;;;-0.06;100.00;101892.75;10451291;28;20496;-81
2023/12/03 14:45:16;;;;;;;48.80;23.23;;;;;;;-0.08;100.00;101909.13;10440075;28;20037;-82
2023/12/03 14:50:19;;;;;;;52.80;26.17;;;;;;;-0.17;100.00;101911.94;10438220;28;20121;-81
2023/12/03 14:55:19;;;;;;;56.90;24.67;;;;;;;-0.39;100.00;101892.50;10423286;28;20493;-83
2023/12/03 15:00:20;;;;;;;60.87;27.97;;;;;;;-0.34;100.00;101906.41;10461623;28;20036;-83
2023/12/03 15:05:20;;;;;;;60.07;25.57;;;;;;;-0.54;100.00;101872.41;10472563;28;20051;-84
2023/12/03 15:10:21;;;;;;;63.63;26.60;;;;;;;-0.45;100.00;101898.53;10431491;28;20033;-83
2023/12/03 15:15:22;;;;;;;60.38;28.67;;;;;;;-0.55;100.00;101882.41;10426515;28;20029;-81
2023/12/03 15:20:22;;;;;;;62.73;26.27;;;;;;;-0.52;100.00;101892.03;10419357;28;20041;-82
2023/12/03 15:25:23;;;;;;;58.20;26.50;;;;;;;-0.50;100.00;101890.03;10472916;28;20033;-82
2023/12/03 15:30:23;;;;;;;59.80;25.60;;;;;;;-0.46;100.00;101894.13;10431671;28;20075;-76
2023/12/03 15:35:24;;;;;;;64.97;25.27;;;;;;;-0.45;100.00;101893.97;10474304;28;20066;-82
2023/12/03 15:40:24;;;;;;;61.23;29.00;;;;;;;-0.47;100.00;101897.84;10452211;28;20041;-80
2023/12/03 15:45:25;;;;;;;67.27;26.73;;;;;;;-0.54;100.00;101883.22;10441130;28;20488;-82
2023/12/03 15:50:25;;;;;;;66.83;26.57;;;;;;;-0.67;100.00;101870.97;10428828;28;20041;-81
2023/12/03 15:55:26;;;;;;;59.87;27.47;;;;;;;-0.96;100.00;101819.00;10431163;28;20068;-81
2023/12/03 16:00:27;;;;;;;58.90;25.07;;;;;;;-0.53;100.00;101880.38;10457183;28;20047;-83
2023/12/03 16:05:28;;;;;;;57.57;26.13;;;;;;;-0.66;100.00;101853.75;10453609;28;20040;-84
2023/12/03 16:10:29;;;;;;;57.95;26.02;;;;;;;-0.48;100.00;101869.09;10477675;28;20040;-84
2023/12/03 16:15:29;;;;;;;63.70;27.47;;;;;;;-0.42;100.00;101865.75;10405427;28;20064;-84
2023/12/03 16:20:29;;;;;;;61.73;27.67;;;;;;;-0.49;100.00;101848.47;10440507;28;20040;-84
2023/12/03 16:25:30;;;;;;;64.10;26.73;;;;;;;-0.37;100.00;101858.03;10434162;28;20045;-78
2023/12/03 16:30:30;;;;;;;60.17;27.43;;;;;;;-0.35;100.00;101856.00;10469512;28;20432;-83
2023/12/03 16:35:31;;;;;;;64.95;23.33;;;;;;;-0.38;100.00;101850.06;10424526;28;20049;-80
2023/12/03 16:40:32;;;;;;;55.57;23.90;;;;;;;-0.41;100.00;101846.66;10425935;28;20135;-84
2023/12/03 16:45:33;;;;;;;55.20;24.03;;;;;;;-0.38;100.00;101850.91;10455967;28;20045;-82
2023/12/03 16:50:34;;;;;;;60.33;24.27;;;;;;;-0.50;100.00;101825.09;10473406;28;20095;-81
2023/12/03 16:55:34;;;;;;;50.53;22.77;;;;;;;-0.41;100.00;101835.84;10424430;28;20041;-81
2023/12/03 17:00:35;;;;;;;49.63;23.20;;;;;;;-0.79;100.00;101780.28;10442803;28;20040;-81
2023/12/03 17:05:35;;;;;;;58.30;24.30;;;;;;;-0.33;100.00;101842.28;10443923;28;20036;-82
2023/12/03 17:10:35;;;;;;;47.03;21.20;;;;;;;-0.41;100.00;101830.44;10459209;28;20095;-81
2023/12/03 17:15:36;;;;;;;54.63;23.48;;;;;;;-0.25;100.00;101850.47;10430581;28;20085;-77
2023/12/03 17:20:36;;;;;;;52.07;22.13;;;;;;;-0.27;100.00;101847.94;10422424;28;20079;-81
2023/12/03 17:25:37;;;;;;;47.13;21.03;;;;;;;-0.24;100.00;101842.19;10437194;28;20040;-81
2023/12/03 17:30:37;;;;;;;47.70;21.23;;;;;;;-0.17;100.00;101836.16;10418110;28;20099;-81
2023/12/03 17:35:38;;;;;;;41.10;20.63;;;;;;;-0.24;100.00;101815.13;10436807;28;20044;-80
2023/12/03 17:40:40;;;;;;;41.60;22.17;;;;;;;-0.21;100.00;101817.53;10446097;28;20041;-81
2023/12/03 17:45:40;;;;;;;46.20;21.33;;;;;;;-0.22;100.00;101812.28;10443240;28;20041;-82
2023/12/03 17:50:40;;;;;;;45.00;20.77;;;;;;;-0.17;100.00;101825.31;10435950;28;20033;-82
2023/12/03 17:55:41;;;;;;;47.70;21.43;;;;;;;-0.18;100.00;101820.94;10422744;28;20041;-82
2023/12/03 18:00:43;;;;;;;47.73;19.83;;;;;;;-0.18;100.00;101815.53;10436392;28;20037;-81
2023/12/03 18:05:44;;;;;;;42.33;21.30;;;;;;;-0.20;100.00;101810.25;10440836;28;20123;-81
2023/12/03 18:10:45;;;;;;;46.50;20.30;;;;;;;-0.14;100.00;101814.19;10458476;28;20091;-80
2023/12/03 18:15:45;;;;;;;43.87;22.60;;;;;;;-0.25;100.00;101799.94;10438783;28;20049;-81
2023/12/03 18:20:46;;;;;;;42.23;20.33;;;;;;;-0.22;100.00;101787.94;10428084;28;20056;-81
2023/12/03 18:25:46;;;;;;;40.20;19.27;;;;;;;-0.25;100.00;101778.28;10426487;28;20037;-80
2023/12/03 18:30:47;;;;;;;41.37;19.77;;;;;;;-0.29;100.00;101773.31;10444024;28;20033;-79
2023/12/03 18:35:48;;;;;;;37.37;20.13;;;;;;;-0.31;100.00;101761.81;10420466;28;20512;-79
2023/12/03 18:40:53;;;;;;;40.57;20.03;;;;;;;-0.25;100.00;101780.97;10445841;28;20048;-79
2023/12/03 18:45:53;;;;;;;36.20;18.17;;;;;;;-0.72;100.00;101694.81;10425265;28;20104;-78
2023/12/03 18:50:54;;;;;;;43.33;20.23;;;;;;;-0.35;100.00;101752.31;10426916;28;20060;-78
2023/12/03 18:55:55;;;;;;;40.67;19.77;;;;;;;-0.40;100.00;101747.41;10443931;28;20037;-78
2023/12/03 19:00:55;;;;;;;39.53;17.80;;;;;;;-0.42;100.00;101746.72;10462622;28;20045;-78
2023/12/03 19:05:56;;;;;;;36.10;17.23;;;;;;;-0.40;100.00;101747.41;10444031;28;20041;-77
2023/12/03 19:10:56;;;;;;;40.87;19.27;;;;;;;-0.46;100.00;101745.34;10467017;28;20037;-77
2023/12/03 19:15:57;;;;;;;35.10;17.03;;;;;;;-0.54;100.00;101731.75;10442848;28;20037;-77
2023/12/03 19:20:57;;;;;;;37.10;18.70;;;;;;;-0.64;100.00;101727.31;10442802;28;20049;-77
2023/12/03 19:25:58;;;;;;;39.63;17.03;;;;;;;-0.58;100.00;101746.59;10442433;28;20067;-77
2023/12/03 19:31:01;;;;;;;37.63;19.30;;;;;;;-0.76;100.00;101722.34;10426108;28;20044;-77
2023/12/03 19:36:02;;;;;;;38.27;16.57;;;;;;;-0.76;100.00;101731.31;10427698;28;20135;-77
2023/12/03 19:41:03;;;;;;;36.43;17.67;;;;;;;-0.79;100.00;101726.19;10425644;28;20068;-77
2023/12/03 19:46:09;;;;;;;34.07;18.73;;;;;;;-0.87;100.00;101732.41;10460106;28;20098;-77
2023/12/03 19:51:10;;;;;;;;;;;;;;;-0.92;100.00;101726.63;10442187;28;20179;-77
2023/12/03 19:56:11;;;;;;;38.90;18.27;;;;;;;-1.06;100.00;101713.66;10441850;28;19920;-76
2023/12/03 20:01:13;;;;;;;40.67;18.27;;;;;;;-1.03;100.00;101722.31;10424825;28;20045;-77
2023/12/03 20:06:13;;;;;;;34.77;18.57;;;;;;;-1.24;100.00;101687.53;10460755;28;20048;-76
2023/12/03 20:11:14;;;;;;;39.93;18.27;;;;;;;-1.19;100.00;101697.88;10430150;28;20530;-78
2023/12/03 20:16:14;;;;;;;40.70;19.03;;;;;;;-1.20;100.00;101696.16;10440871;28;20401;-78
2023/12/03 20:21:18;;;;;;;36.40;17.33;;;;;;;-1.30;100.00;101668.38;10423121;28;20316;-78
2023/12/03 20:26:21;;;;;;;39.67;20.20;;;;;;;-1.16;100.00;101666.97;10423241;28;20029;-79
2023/12/03 20:31:24;;;;;;;41.77;18.83;;;;;;;-1.12;100.00;101663.78;10405546;28;20143;-79
2023/12/03 20:36:25;;;;;;;39.07;18.43;;;;;;;-1.12;100.00;101654.84;10440388;28;20045;-80
2023/12/03 20:41:25;;;;;;;44.47;20.50;;;;;;;-1.15;100.00;101650.63;10444501;28;20056;-80
2023/12/03 20:46:26;;;;;;;41.80;18.43;;;;;;;-1.13;100.00;101655.88;10439675;28;20048;-81
2023/12/03 20:51:27;;;;;;;41.67;18.30;;;;;;;-1.17;100.00;101654.50;10456459;28;20087;-81
2023/12/03 20:56:28;;;;;;;39.80;19.37;;;;;;;-1.27;100.00;101622.16;10423294;28;20048;-81
2023/12/03 21:01:32;;;;;;;40.90;19.67;;;;;;;-1.59;100.00;101571.44;10439597;28;20485;-81
2023/12/03 21:06:32;;;;;;;41.20;19.80;;;;;;;-1.11;100.00;101643.88;10410593;28;20044;-82
2023/12/03 21:11:33;;;;;;;35.60;18.23;;;;;;;-1.55;100.00;101571.00;10391748;28;20063;-83
2023/12/03 21:16:33;;;;;;;39.77;17.93;;;;;;;-1.26;100.00;101623.84;10455817;28;20040;-83
2023/12/03 21:21:34;;;;;;;38.83;18.07;;;;;;;-1.19;100.00;101632.19;10436112;28;20037;-82
2023/12/03 21:26:34;;;;;;;40.60;19.67;;;;;;;-1.16;100.00;101635.41;10421320;28;20485;-83
2023/12/03 21:31:35;;;;;;;37.90;18.23;;;;;;;-1.54;100.00;101561.88;10422365;28;20044;-81
2023/12/03 21:36:38;;;;;;;35.63;18.03;;;;;;;-1.11;100.00;101626.84;10441307;28;20048;-82
2023/12/03 21:41:39;;;;;;;39.33;20.20;;;;;;;-1.13;100.00;101613.47;10405098;28;20043;-83
2023/12/03 21:46:40;;;;;;;34.93;15.57;;;;;;;-1.07;100.00;101607.44;10422066;28;20033;-82
2023/12/03 21:51:41;;;;;;;36.37;18.53;;;;;;;-1.10;100.00;101591.53;10422193;28;20030;-83
2023/12/03 21:56:43;;;;;;;40.40;18.53;;;;;;;-0.99;100.00;101587.72;10428851;28;20094;-83
2023/12/03 22:01:44;;;;;;;33.50;15.63;;;;;;;-1.26;100.00;101527.44;10431543;28;20127;-81
2023/12/03 22:06:44;;;;;;;32.03;16.70;;;;;;;-0.76;100.00;101587.16;10431029;28;20509;-82
2023/12/03 22:11:45;;;;;;;30.60;15.07;;;;;;;-0.71;100.00;101585.63;10445626;28;20095;-81
2023/12/03 22:16:45;;;;;;;29.63;15.30;;;;;;;-0.70;100.00;101575.69;10411752;28;20060;-81